Time;durP1;ratioP1;P1;durP2;ratioP2;P2;SDS_P1;SDS_P2;PMS_P1;PMS_P2;Temp;Humidity;BMP_temperature;BMP_pressure;BME280_temperature;BME280_humidity;BME280_pressure;Samples;Min_cycle;Max_cycle;Signal;HPM_P1;HPM_P2
2023/04/30 00:01:32;;;;;;;0.20;0.20;;;4.60;99.90;;;;;;5036428;28;20677;-84
2023/04/30 00:03:58;;;;;;;0.30;0.30;;;4.80;99.90;;;;;;5044447;28;20194;-83
2023/04/30 00:06:23;;;;;;;0.30;0.30;;;4.80;99.90;;;;;;5050713;28;20734;-85
2023/04/30 00:08:49;;;;;;;0.20;0.20;;;4.80;99.90;;;;;;5041122;28;20278;-85
2023/04/30 00:11:14;;;;;;;0.30;0.30;;;4.70;99.90;;;;;;5045831;28;20250;-85
2023/04/30 00:13:41;;;;;;;0.23;0.23;;;4.60;99.90;;;;;;5052500;28;20178;-85
2023/04/30 00:16:07;;;;;;;0.30;0.30;;;4.60;99.90;;;;;;5048887;28;20617;-85
2023/04/30 00:18:32;;;;;;;0.30;0.30;;;4.50;99.90;;;;;;5043492;28;20498;-84
2023/04/30 00:20:58;;;;;;;0.20;0.20;;;4.60;99.90;;;;;;5040559;28;20639;-84
2023/04/30 00:23:24;;;;;;;0.30;0.30;;;4.60;99.90;;;;;;5048992;28;20740;-85
2023/04/30 00:25:49;;;;;;;0.23;0.23;;;4.60;99.90;;;;;;5049459;28;20659;-84
2023/04/30 00:28:15;;;;;;;0.30;0.30;;;4.70;99.90;;;;;;5047706;28;20216;-84
2023/04/30 00:30:40;;;;;;;0.20;0.20;;;4.60;99.90;;;;;;5040145;28;20183;-84
2023/04/30 00:33:06;;;;;;;0.30;0.30;;;4.50;99.90;;;;;;5032892;28;20195;-85
2023/04/30 00:35:31;;;;;;;0.30;0.30;;;4.60;99.90;;;;;;5035790;28;20708;-85
2023/04/30 00:37:57;;;;;;;0.20;0.20;;;4.60;99.90;;;;;;5040906;28;20242;-85
2023/04/30 00:40:22;;;;;;;0.20;0.20;;;4.60;99.90;;;;;;5040284;28;20238;-85
2023/04/30 00:42:48;;;;;;;0.23;0.23;;;4.60;99.90;;;;;;5047615;28;20238;-85
2023/04/30 00:45:13;;;;;;;0.30;0.30;;;4.70;99.90;;;;;;5043366;28;20194;-85
2023/04/30 00:47:39;;;;;;;0.27;0.27;;;4.70;99.90;;;;;;5043606;28;20198;-85
2023/04/30 00:50:06;;;;;;;0.30;0.30;;;4.50;99.90;;;;;;5049922;28;20186;-85
2023/04/30 00:52:31;;;;;;;0.20;0.20;;;4.50;99.90;;;;;;5045280;28;20992;-84
2023/04/30 00:54:57;;;;;;;0.30;0.30;;;4.40;99.90;;;;;;5047287;28;20480;-85
2023/04/30 00:57:23;;;;;;;0.30;0.30;;;4.40;99.90;;;;;;5038067;28;20265;-84
2023/04/30 00:59:50;;;;;;;0.27;0.27;;;4.50;99.90;;;;;;5032091;28;20222;-85
2023/04/30 01:02:16;;;;;;;0.30;0.30;;;4.50;99.90;;;;;;5043533;28;20499;-85
2023/04/30 01:04:42;;;;;;;0.30;0.30;;;4.50;99.90;;;;;;5041218;28;20438;-85
2023/04/30 01:07:08;;;;;;;0.30;0.30;;;4.60;99.90;;;;;;5048539;28;20437;-85
2023/04/30 01:09:33;;;;;;;0.30;0.30;;;4.50;99.90;;;;;;5038195;28;20453;-85
2023/04/30 01:12:12;;;;;;;0.20;0.20;;;4.60;99.90;;;;;;5034258;28;20658;-85
2023/04/30 01:15:14;;;;;;;0.30;0.30;;;4.50;99.90;;;;;;5046248;28;20190;-85
2023/04/30 01:17:55;;;;;;;0.30;0.30;;;4.40;99.90;;;;;;5037059;28;20450;-85
2023/04/30 01:20:22;;;;;;;0.30;0.30;;;4.40;99.90;;;;;;5042957;28;20501;-84
2023/04/30 01:22:56;;;;;;;0.27;0.27;;;4.30;99.90;;;;;;5030902;28;20507;-85
2023/04/30 01:25:54;;;;;;;0.30;0.30;;;4.20;99.90;;;;;;5037523;28;20448;-84
2023/04/30 01:28:23;;;;;;;0.20;0.20;;;4.20;99.90;;;;;;5019243;28;20862;-85
2023/04/30 01:30:49;;;;;;;0.20;0.20;;;4.40;99.90;;;;;;5037968;28;20472;-85
2023/04/30 01:33:15;;;;;;;0.20;0.20;;;4.30;99.90;;;;;;5045329;28;20440;-86
2023/04/30 01:35:45;;;;;;;0.30;0.30;;;4.20;99.90;;;;;;5045015;28;20441;-84
2023/04/30 01:38:30;;;;;;;0.30;0.30;;;4.30;99.90;;;;;;5046991;28;20197;-85
2023/04/30 01:41:21;;;;;;;0.30;0.30;;;4.30;99.90;;;;;;5039017;28;20444;-85
2023/04/30 01:43:53;;;;;;;0.20;0.20;;;4.20;99.90;;;;;;5042067;28;20449;-85
2023/04/30 01:46:20;;;;;;;0.27;0.27;;;4.30;99.90;;;;;;5046180;28;20446;-85
2023/04/30 01:49:07;;;;;;;0.23;0.23;;;4.30;99.90;;;;;;5034209;28;20487;-85
2023/04/30 01:51:41;;;;;;;0.30;0.30;;;4.30;99.90;;;;;;5036589;28;20814;-84
2023/04/30 01:54:25;;;;;;;0.27;0.27;;;4.20;99.90;;;;;;5043752;28;20499;-85
2023/04/30 01:57:06;;;;;;;0.30;0.30;;;4.20;99.90;;;;;;5030112;28;20449;-85
2023/04/30 01:59:34;;;;;;;0.30;0.30;;;4.00;99.90;;;;;;5035837;28;20501;-85
2023/04/30 02:02:00;;;;;;;0.30;0.30;;;4.10;99.90;;;;;;5033915;28;20449;-84
2023/04/30 02:04:25;;;;;;;0.23;0.23;;;4.20;99.90;;;;;;5045317;28;20498;-85
2023/04/30 02:06:51;;;;;;;0.20;0.20;;;4.30;99.90;;;;;;5034461;28;20189;-85
2023/04/30 02:09:17;;;;;;;0.30;0.30;;;4.20;99.90;;;;;;5036975;28;20199;-84
2023/04/30 02:11:43;;;;;;;0.30;0.30;;;4.40;99.90;;;;;;5048726;28;20191;-84
2023/04/30 02:14:08;;;;;;;0.20;0.20;;;4.40;99.90;;;;;;5040906;28;20723;-85
2023/04/30 02:16:34;;;;;;;0.20;0.20;;;4.50;99.90;;;;;;5040334;28;20528;-85
2023/04/30 02:19:00;;;;;;;0.20;0.20;;;4.60;99.90;;;;;;5036210;28;20252;-85
2023/04/30 02:21:26;;;;;;;0.20;0.20;;;4.70;99.90;;;;;;5041531;28;20202;-85
2023/04/30 02:23:51;;;;;;;0.30;0.30;;;4.70;99.90;;;;;;5035269;28;20454;-85
2023/04/30 02:26:17;;;;;;;0.20;0.20;;;4.50;99.90;;;;;;5031148;28;20241;-85
2023/04/30 02:28:42;;;;;;;0.20;0.20;;;4.70;99.90;;;;;;5031773;28;20677;-85
2023/04/30 02:31:08;;;;;;;0.30;0.30;;;4.70;99.90;;;;;;5030646;28;20199;-85
2023/04/30 02:33:33;;;;;;;0.30;0.30;;;4.60;99.90;;;;;;5034752;28;20361;-85
2023/04/30 02:35:59;;;;;;;0.23;0.23;;;4.60;99.90;;;;;;5046555;28;20194;-85
2023/04/30 02:38:25;;;;;;;0.30;0.30;;;4.60;99.90;;;;;;5045471;28;20195;-85
2023/04/30 02:40:50;;;;;;;0.30;0.30;;;4.60;99.90;;;;;;5037984;28;20441;-85
2023/04/30 02:43:16;;;;;;;0.20;0.20;;;4.60;99.90;;;;;;5047144;28;20231;-85
2023/04/30 02:45:41;;;;;;;0.20;0.20;;;4.60;99.90;;;;;;5041749;28;20186;-85
2023/04/30 02:48:07;;;;;;;0.30;0.30;;;4.50;99.90;;;;;;5046814;28;20187;-85
2023/04/30 02:50:32;;;;;;;0.30;0.30;;;4.50;99.90;;;;;;5036453;28;20186;-85
2023/04/30 02:52:58;;;;;;;0.30;0.30;;;4.40;99.90;;;;;;5036028;28;20221;-85
2023/04/30 02:55:24;;;;;;;0.20;0.20;;;4.30;99.90;;;;;;5037379;28;20183;-85
2023/04/30 02:57:49;;;;;;;0.20;0.20;;;4.30;99.90;;;;;;5045820;28;20444;-84
2023/04/30 03:00:15;;;;;;;0.30;0.30;;;4.20;99.90;;;;;;5046867;28;20233;-85
2023/04/30 03:02:40;;;;;;;0.30;0.30;;;4.20;99.90;;;;;;5047876;28;20182;-85
2023/04/30 03:05:06;;;;;;;0.30;0.30;;;4.10;99.90;;;;;;5035366;28;20274;-85
2023/04/30 03:07:32;;;;;;;0.30;0.30;;;3.90;99.90;;;;;;5044643;28;20232;-85
2023/04/30 03:09:57;;;;;;;0.30;0.30;;;4.00;99.90;;;;;;5042910;28;20186;-84
2023/04/30 03:12:23;;;;;;;0.30;0.30;;;4.00;99.90;;;;;;5047116;28;20670;-85
2023/04/30 03:14:48;;;;;;;0.30;0.30;;;3.90;99.90;;;;;;5020868;28;20203;-85
2023/04/30 03:17:14;;;;;;;0.20;0.20;;;3.70;99.90;;;;;;5039540;28;20187;-84
2023/04/30 03:19:39;;;;;;;0.30;0.30;;;3.90;99.90;;;;;;5043687;28;20273;-84
2023/04/30 03:22:04;;;;;;;0.23;0.23;;;3.80;99.90;;;;;;5047164;28;20252;-84
2023/04/30 03:24:30;;;;;;;0.20;0.20;;;3.80;99.90;;;;;;5037942;28;20703;-84
2023/04/30 03:26:55;;;;;;;0.20;0.20;;;3.70;99.90;;;;;;5043823;28;20187;-85
2023/04/30 03:29:21;;;;;;;0.20;0.20;;;3.70;99.90;;;;;;5048352;28;20183;-84
2023/04/30 03:31:46;;;;;;;0.20;0.20;;;3.60;99.90;;;;;;5030818;28;20199;-85
2023/04/30 03:34:12;;;;;;;0.30;0.30;;;3.70;99.90;;;;;;5046147;28;20687;-85
2023/04/30 03:36:37;;;;;;;0.30;0.30;;;3.60;99.90;;;;;;5040191;28;20228;-84
2023/04/30 03:39:03;;;;;;;0.40;0.40;;;3.60;99.90;;;;;;5037337;28;20330;-85
2023/04/30 03:41:29;;;;;;;0.30;0.30;;;3.70;99.90;;;;;;5031302;28;20211;-84
2023/04/30 03:43:54;;;;;;;0.30;0.30;;;3.70;99.90;;;;;;5037213;28;20282;-84
2023/04/30 03:46:20;;;;;;;0.30;0.30;;;3.70;99.90;;;;;;5034292;28;20236;-84
2023/04/30 03:48:46;;;;;;;0.30;0.30;;;3.70;99.90;;;;;;5036628;28;20256;-85
2023/04/30 03:51:11;;;;;;;0.30;0.30;;;3.60;99.90;;;;;;5040058;28;20271;-84
2023/04/30 03:53:37;;;;;;;0.30;0.30;;;3.70;99.90;;;;;;5035453;28;20257;-84
2023/04/30 03:56:03;;;;;;;0.30;0.30;;;3.70;99.90;;;;;;5042691;28;20545;-84
2023/04/30 03:58:29;;;;;;;0.30;0.30;;;3.70;99.90;;;;;;5032490;28;20242;-84
2023/04/30 04:00:55;;;;;;;0.30;0.30;;;3.60;99.90;;;;;;5035229;28;20460;-85
2023/04/30 04:03:21;;;;;;;0.27;0.27;;;3.70;99.90;;;;;;5037106;28;20441;-84
2023/04/30 04:05:46;;;;;;;0.30;0.30;;;3.80;99.90;;;;;;5038130;28;20209;-85
2023/04/30 04:08:12;;;;;;;0.40;0.40;;;3.80;99.90;;;;;;5037088;28;20440;-85
2023/04/30 04:10:39;;;;;;;0.30;0.30;;;3.80;99.90;;;;;;5042483;28;20636;-83
2023/04/30 04:13:05;;;;;;;0.30;0.30;;;3.90;99.90;;;;;;5032044;28;20195;-84
2023/04/30 04:15:31;;;;;;;0.30;0.30;;;3.90;99.90;;;;;;5041888;28;20442;-84
2023/04/30 04:17:57;;;;;;;0.30;0.30;;;3.90;99.90;;;;;;5046134;28;21212;-84
2023/04/30 04:20:22;;;;;;;0.30;0.30;;;3.90;99.90;;;;;;5031526;28;21233;-84
2023/04/30 04:22:48;;;;;;;0.30;0.30;;;3.90;99.90;;;;;;5041255;28;20191;-84
2023/04/30 04:25:14;;;;;;;0.30;0.30;;;3.90;99.90;;;;;;5039807;28;20207;-85
2023/04/30 04:27:39;;;;;;;0.30;0.30;;;4.00;99.90;;;;;;5047746;28;20183;-84
2023/04/30 04:30:06;;;;;;;0.30;0.30;;;4.00;99.90;;;;;;5041297;28;20445;-85
2023/04/30 04:32:31;;;;;;;0.20;0.20;;;4.20;99.90;;;;;;5040788;28;20492;-84
2023/04/30 04:34:57;;;;;;;0.30;0.30;;;4.10;99.90;;;;;;5034317;28;20440;-85
2023/04/30 04:37:23;;;;;;;0.30;0.30;;;4.30;99.90;;;;;;5041642;28;20194;-84
2023/04/30 04:39:49;;;;;;;0.30;0.30;;;4.20;99.90;;;;;;5042207;28;20223;-84
2023/04/30 04:42:18;;;;;;;0.20;0.20;;;4.30;99.90;;;;;;5035600;28;20350;-84
2023/04/30 04:44:44;;;;;;;0.30;0.30;;;4.30;99.90;;;;;;5049311;28;20441;-84
2023/04/30 04:47:11;;;;;;;0.20;0.20;;;4.50;99.90;;;;;;5048530;28;20445;-85
2023/04/30 04:49:37;;;;;;;0.30;0.30;;;4.50;99.90;;;;;;5043978;28;20183;-84
2023/04/30 04:52:02;;;;;;;0.20;0.20;;;4.60;99.90;;;;;;5048616;28;20485;-84
2023/04/30 04:54:28;;;;;;;0.27;0.27;;;4.60;99.90;;;;;;5049970;28;20190;-85
2023/04/30 04:56:53;;;;;;;0.20;0.20;;;4.70;99.90;;;;;;5047326;28;20194;-85
2023/04/30 04:59:19;;;;;;;0.27;0.27;;;4.70;99.90;;;;;;5046153;28;20221;-85
2023/04/30 05:01:45;;;;;;;0.20;0.20;;;4.70;99.90;;;;;;5042528;28;20187;-84
2023/04/30 05:04:12;;;;;;;0.20;0.20;;;4.80;99.90;;;;;;5044466;28;20439;-84
2023/04/30 05:06:38;;;;;;;0.30;0.30;;;4.70;99.90;;;;;;5046399;28;20183;-85
2023/04/30 05:09:07;;;;;;;0.20;0.20;;;4.80;99.90;;;;;;5049606;28;20452;-85
2023/04/30 05:11:33;;;;;;;0.27;0.27;;;4.80;99.90;;;;;;5039517;28;20191;-81
2023/04/30 05:13:58;;;;;;;0.20;0.20;;;4.90;99.90;;;;;;5036847;28;20457;-82
2023/04/30 05:16:25;;;;;;;0.23;0.23;;;4.80;99.90;;;;;;5031794;28;20329;-82
2023/04/30 05:18:51;;;;;;;0.20;0.20;;;4.90;99.90;;;;;;5035035;28;20272;-82
2023/04/30 05:21:16;;;;;;;0.20;0.20;;;5.00;99.90;;;;;;5040468;28;20570;-82
2023/04/30 05:23:43;;;;;;;0.20;0.20;;;5.10;99.90;;;;;;5041292;28;20183;-82
2023/04/30 05:26:09;;;;;;;0.20;0.20;;;5.20;99.90;;;;;;5042078;28;20183;-82
2023/04/30 05:28:35;;;;;;;0.30;0.30;;;5.30;99.90;;;;;;5035109;28;20449;-82
2023/04/30 05:31:00;;;;;;;0.20;0.20;;;5.50;99.90;;;;;;5036691;28;20198;-82
2023/04/30 05:33:26;;;;;;;0.30;0.30;;;5.40;99.90;;;;;;5032237;28;20179;-82
2023/04/30 05:35:51;;;;;;;0.20;0.20;;;5.50;99.90;;;;;;5038300;28;20191;-82
2023/04/30 05:38:17;;;;;;;0.20;0.20;;;5.60;99.90;;;;;;5042146;28;20183;-84
2023/04/30 05:40:42;;;;;;;0.20;0.20;;;5.80;99.90;;;;;;5047005;28;20285;-82
2023/04/30 05:43:08;;;;;;;0.20;0.20;;;6.10;99.90;;;;;;5036178;28;20225;-84
2023/04/30 05:45:33;;;;;;;0.30;0.30;;;6.10;99.90;;;;;;5046412;28;20183;-83
2023/04/30 05:48:00;;;;;;;0.20;0.20;;;6.20;99.90;;;;;;5035961;28;20193;-82
2023/04/30 05:50:26;;;;;;;0.20;0.20;;;6.30;99.90;;;;;;5033958;28;20261;-83
2023/04/30 05:52:51;;;;;;;0.17;0.17;;;6.50;99.90;;;;;;5036673;28;20937;-83
2023/04/30 05:55:17;;;;;;;0.23;0.23;;;6.50;99.90;;;;;;5042813;28;20744;-82
2023/04/30 05:57:42;;;;;;;0.20;0.20;;;6.60;99.90;;;;;;5041961;28;20184;-82
2023/04/30 06:00:08;;;;;;;0.20;0.20;;;6.80;99.90;;;;;;5033334;28;20249;-82
2023/04/30 06:02:34;;;;;;;0.17;0.17;;;6.80;99.90;;;;;;5043960;28;20647;-82
2023/04/30 06:05:01;;;;;;;0.20;0.20;;;6.90;99.90;;;;;;5047447;28;20441;-82
2023/04/30 06:07:27;;;;;;;0.20;0.20;;;6.90;99.90;;;;;;5031466;28;20194;-82
2023/04/30 06:09:52;;;;;;;0.13;0.13;;;7.00;99.90;;;;;;5025965;28;20801;-82
2023/04/30 06:12:18;;;;;;;0.20;0.20;;;7.20;99.90;;;;;;5027452;28;20190;-82
2023/04/30 06:14:44;;;;;;;0.20;0.20;;;7.20;99.90;;;;;;5035386;28;20191;-81
2023/04/30 06:17:11;;;;;;;0.13;0.13;;;7.40;99.90;;;;;;5033257;28;20191;-80
2023/04/30 06:19:37;;;;;;;0.20;0.20;;;7.60;99.90;;;;;;5033622;28;20852;-81
2023/04/30 06:22:03;;;;;;;0.20;0.20;;;7.50;99.90;;;;;;5029332;28;21173;-80
2023/04/30 06:24:29;;;;;;;0.17;0.17;;;7.50;99.90;;;;;;5032828;28;20454;-83
2023/04/30 06:26:55;;;;;;;0.10;0.10;;;7.60;99.90;;;;;;5035020;28;20194;-81
2023/04/30 06:29:23;;;;;;;0.20;0.20;;;7.70;99.90;;;;;;5025360;28;20697;-82
2023/04/30 06:31:49;;;;;;;0.20;0.20;;;7.80;99.90;;;;;;5034463;28;20184;-82
2023/04/30 06:34:15;;;;;;;0.10;0.10;;;8.10;99.90;;;;;;5044157;28;20460;-81
2023/04/30 06:36:40;;;;;;;0.10;0.10;;;8.10;99.90;;;;;;5034527;28;20977;-80
2023/04/30 06:39:06;;;;;;;0.20;0.20;;;8.00;99.90;;;;;;5039584;28;20211;-80
2023/04/30 06:41:31;;;;;;;0.10;0.10;;;7.90;99.90;;;;;;5039251;28;20272;-81
2023/04/30 06:43:57;;;;;;;0.20;0.20;;;8.00;99.90;;;;;;5035541;28;20188;-80
2023/04/30 06:46:22;;;;;;;0.20;0.20;;;8.30;99.90;;;;;;5034557;28;20187;-80
2023/04/30 06:48:48;;;;;;;0.10;0.10;;;8.40;99.90;;;;;;5034190;28;20245;-80
2023/04/30 06:51:13;;;;;;;0.10;0.10;;;8.30;99.90;;;;;;5028976;28;21031;-79
2023/04/30 06:53:39;;;;;;;0.10;0.10;;;8.40;99.90;;;;;;5037287;28;20992;-80
2023/04/30 06:56:05;;;;;;;0.10;0.10;;;8.60;99.90;;;;;;5035765;28;20723;-81
2023/04/30 06:58:30;;;;;;;0.10;0.10;;;8.80;99.90;;;;;;5042953;28;20195;-80
2023/04/30 07:00:57;;;;;;;0.10;0.10;;;8.90;99.90;;;;;;5033443;28;20446;-80
2023/04/30 07:03:22;;;;;;;0.10;0.10;;;8.50;99.90;;;;;;5043575;28;20182;-80
2023/04/30 07:05:48;;;;;;;0.17;0.17;;;8.70;99.90;;;;;;5032247;28;20446;-80
2023/04/30 07:08:14;;;;;;;0.10;0.10;;;8.10;99.90;;;;;;5043234;28;20206;-82
2023/04/30 07:10:39;;;;;;;0.17;0.17;;;8.20;99.90;;;;;;5033409;28;20185;-81
2023/04/30 07:13:07;;;;;;;0.10;0.10;;;8.00;99.90;;;;;;5042768;28;20441;-82
2023/04/30 07:15:32;;;;;;;0.20;0.20;;;8.10;99.90;;;;;;5027722;28;20496;-82
2023/04/30 07:17:58;;;;;;;0.20;0.20;;;8.10;99.90;;;;;;5030614;28;20444;-82
2023/04/30 07:20:23;;;;;;;0.17;0.17;;;7.90;99.90;;;;;;5034171;28;20234;-82
2023/04/30 07:22:49;;;;;;;0.20;0.20;;;8.00;99.90;;;;;;5036017;28;20576;-80
2023/04/30 07:25:15;;;;;;;0.10;0.10;;;8.10;99.90;;;;;;5036314;28;20197;-79
2023/04/30 07:27:40;;;;;;;0.10;0.10;;;8.30;99.90;;;;;;5039129;28;20553;-79
2023/04/30 07:30:10;;;;;;;0.10;0.10;;;8.60;99.90;;;;;;5040975;28;20233;-80
2023/04/30 07:32:37;;;;;;;0.10;0.10;;;9.00;99.90;;;;;;5033443;28;20546;-79
2023/04/30 07:35:03;;;;;;;0.10;0.10;;;9.20;99.90;;;;;;5045569;28;20445;-79
2023/04/30 07:37:29;;;;;;;0.10;0.10;;;9.40;99.90;;;;;;5040651;28;20528;-79
2023/04/30 07:39:55;;;;;;;0.10;0.10;;;9.60;99.90;;;;;;5034061;28;20596;-79
2023/04/30 07:42:21;;;;;;;0.10;0.10;;;9.60;99.90;;;;;;5032310;28;20227;-80
2023/04/30 07:44:47;;;;;;;0.10;0.10;;;9.40;99.90;;;;;;5049138;28;20853;-79
2023/04/30 07:47:13;;;;;;;0.10;0.10;;;9.10;99.90;;;;;;5030289;28;20183;-79
2023/04/30 07:49:38;;;;;;;0.10;0.10;;;9.00;99.90;;;;;;5033770;28;20438;-79
2023/04/30 07:52:05;;;;;;;0.10;0.10;;;9.30;99.90;;;;;;5035711;28;20189;-79
2023/04/30 07:54:30;;;;;;;0.10;0.10;;;9.20;99.90;;;;;;5046694;28;20749;-79
2023/04/30 07:56:56;;;;;;;0.10;0.10;;;9.20;99.90;;;;;;5038394;28;20527;-79
2023/04/30 07:59:23;;;;;;;0.10;0.10;;;8.90;99.90;;;;;;5038878;28;20716;-79
2023/04/30 08:01:49;;;;;;;0.10;0.10;;;9.00;99.90;;;;;;5032997;28;20190;-79
2023/04/30 08:04:15;;;;;;;0.10;0.10;;;9.30;99.90;;;;;;5032463;28;20445;-79
2023/04/30 08:06:40;;;;;;;0.10;0.10;;;9.30;99.90;;;;;;5031570;28;20440;-79
2023/04/30 08:09:06;;;;;;;0.10;0.10;;;9.50;99.90;;;;;;5032459;28;20656;-78
2023/04/30 08:11:31;;;;;;;0.10;0.10;;;9.60;99.90;;;;;;5050956;28;20209;-79
2023/04/30 08:13:57;;;;;;;0.10;0.10;;;9.70;99.90;;;;;;5043291;28;20236;-79
2023/04/30 08:16:22;;;;;;;0.10;0.10;;;9.70;99.90;;;;;;5034781;28;20198;-79
2023/04/30 08:18:48;;;;;;;0.10;0.10;;;9.50;99.90;;;;;;5047902;28;20679;-79
2023/04/30 08:21:14;;;;;;;0.10;0.10;;;9.50;99.90;;;;;;5032090;28;20232;-79
2023/04/30 08:23:40;;;;;;;0.10;0.10;;;9.50;99.90;;;;;;5033693;28;20448;-79
2023/04/30 08:26:06;;;;;;;0.10;0.10;;;9.40;99.90;;;;;;5044694;28;20446;-79
2023/04/30 08:28:31;;;;;;;0.10;0.10;;;9.80;99.90;;;;;;5035668;28;20195;-79
2023/04/30 08:30:57;;;;;;;0.10;0.10;;;10.40;99.90;;;;;;5031901;28;20778;-79
2023/04/30 08:33:22;;;;;;;0.10;0.10;;;10.70;99.90;;;;;;5032138;28;20192;-80
2023/04/30 08:35:48;;;;;;;0.10;0.10;;;11.30;99.90;;;;;;5034842;28;20237;-80
2023/04/30 08:38:13;;;;;;;0.10;0.10;;;11.30;99.90;;;;;;5047496;28;20202;-79
2023/04/30 08:40:39;;;;;;;0.10;0.10;;;10.90;99.90;;;;;;5031793;28;20230;-79
2023/04/30 08:43:07;;;;;;;0.10;0.10;;;11.20;99.90;;;;;;5039303;28;20219;-79
2023/04/30 08:45:34;;;;;;;0.10;0.10;;;11.10;99.90;;;;;;5048059;28;20519;-78
2023/04/30 08:48:00;;;;;;;0.03;0.03;;;11.70;99.90;;;;;;5051214;28;21273;-79
2023/04/30 08:50:30;;;;;;;0.10;0.10;;;11.90;99.90;;;;;;5051387;28;20456;-78
2023/04/30 08:52:57;;;;;;;0.07;0.07;;;11.90;99.90;;;;;;5039486;28;20522;-80
2023/04/30 08:55:25;;;;;;;0.10;0.10;;;12.30;99.90;;;;;;5035137;28;20454;-83
2023/04/30 08:57:51;;;;;;;0.03;0.03;;;12.20;99.90;;;;;;5047005;28;20474;-80
2023/04/30 09:00:17;;;;;;;0.10;0.10;;;11.40;99.90;;;;;;5035454;28;20554;-78
2023/04/30 09:02:47;;;;;;;0.10;0.10;;;10.60;99.90;;;;;;5032435;28;20202;-77
2023/04/30 09:05:14;;;;;;;0.10;0.10;;;10.30;99.90;;;;;;5034778;28;20199;-78
2023/04/30 09:07:41;;;;;;;0.10;0.10;;;10.70;99.90;;;;;;5039355;28;20433;-77
2023/04/30 09:10:17;;;;;;;0.10;0.10;;;11.70;99.90;;;;;;5041559;28;21189;-77
2023/04/30 09:12:44;;;;;;;0.10;0.10;;;11.80;99.90;;;;;;5039950;28;20448;-79
2023/04/30 09:15:11;;;;;;;0.10;0.10;;;11.70;99.90;;;;;;5034059;28;20651;-80
2023/04/30 09:17:37;;;;;;;0.10;0.10;;;12.30;99.90;;;;;;5032989;28;20434;-79
2023/04/30 09:20:11;;;;;;;0.00;0.00;;;12.90;99.90;;;;;;5044483;28;20492;-80
2023/04/30 09:22:38;;;;;;;0.10;0.10;;;11.90;99.90;;;;;;5033953;28;20488;-80
2023/04/30 09:25:05;;;;;;;0.10;0.10;;;11.60;99.90;;;;;;5041707;28;20433;-77
2023/04/30 09:27:31;;;;;;;0.10;0.10;;;11.10;99.90;;;;;;5037986;28;20442;-79
2023/04/30 09:29:56;;;;;;;0.10;0.10;;;11.70;99.90;;;;;;5035985;28;20573;-79
2023/04/30 09:32:22;;;;;;;0.10;0.10;;;12.60;99.90;;;;;;5040200;28;20661;-79
2023/04/30 09:34:48;;;;;;;0.00;0.00;;;13.20;99.90;;;;;;5046929;28;20179;-79
2023/04/30 09:37:14;;;;;;;0.10;0.10;;;13.20;99.90;;;;;;5042752;28;20190;-79
2023/04/30 09:39:52;;;;;;;0.07;0.07;;;12.90;99.90;;;;;;5035354;28;20221;-79
2023/04/30 09:42:18;;;;;;;0.00;0.00;;;12.50;99.90;;;;;;5035493;28;20461;-79
2023/04/30 09:44:44;;;;;;;0.00;0.00;;;12.90;99.90;;;;;;5050993;28;20424;-80
2023/04/30 09:47:18;;;;;;;0.00;0.00;;;12.50;99.90;;;;;;5038234;28;20936;-79
2023/04/30 09:49:47;;;;;;;0.00;0.00;;;12.70;99.90;;;;;;5029155;28;20446;-79
2023/04/30 09:52:14;;;;;;;0.00;0.00;;;13.70;99.90;;;;;;5038472;28;21225;-79
2023/04/30 09:54:40;;;;;;;0.00;0.00;;;14.10;99.90;;;;;;5031347;28;20461;-79
2023/04/30 09:57:09;;;;;;;0.00;0.00;;;14.40;99.90;;;;;;5039946;28;20434;-79
2023/04/30 09:59:36;;;;;;;0.00;0.00;;;13.90;97.70;;;;;;5047969;28;20218;-79
2023/04/30 10:02:07;;;;;;;0.00;0.00;;;13.80;99.70;;;;;;5042558;28;20531;-79
2023/04/30 10:04:35;;;;;;;0.00;0.00;;;14.40;99.90;;;;;;5034170;28;20534;-79
2023/04/30 10:07:14;;;;;;;0.00;0.00;;;14.90;99.90;;;;;;5037051;28;20941;-79
2023/04/30 10:09:51;;;;;;;0.00;0.00;;;14.20;97.80;;;;;;5044570;28;20445;-78
2023/04/30 10:12:23;;;;;;;0.00;0.00;;;13.30;96.50;;;;;;5036111;28;20438;-79
2023/04/30 10:14:58;;;;;;;0.00;0.00;;;13.70;99.20;;;;;;5036438;28;20445;-79
2023/04/30 10:17:29;;;;;;;0.00;0.00;;;13.80;98.90;;;;;;5029533;28;20452;-79
2023/04/30 10:20:04;;;;;;;0.00;0.00;;;14.40;98.40;;;;;;5037146;28;20485;-78
2023/04/30 10:22:33;;;;;;;0.00;0.00;;;13.40;96.60;;;;;;5060427;28;20425;-79
2023/04/30 10:25:00;;;;;;;0.00;0.00;;;14.20;98.00;;;;;;5048492;28;20535;-78
2023/04/30 10:27:25;;;;;;;0.00;0.00;;;14.60;98.10;;;;;;5052727;28;20990;-79
2023/04/30 10:29:52;;;;;;;0.00;0.00;;;14.90;95.80;;;;;;5046359;28;20551;-78
2023/04/30 10:32:19;;;;;;;0.00;0.00;;;15.50;97.10;;;;;;5030852;28;20188;-81
2023/04/30 10:35:20;;;;;;;0.00;0.00;;;15.60;98.00;;;;;;5047774;28;20638;-81
2023/04/30 10:38:11;;;;;;;0.00;0.00;;;16.10;98.90;;;;;;5018585;28;20445;-81
2023/04/30 10:40:37;;;;;;;0.00;0.00;;;15.50;95.90;;;;;;5046018;28;20495;-82
2023/04/30 10:43:03;;;;;;;0.00;0.00;;;16.20;96.60;;;;;;5049041;28;20476;-81
2023/04/30 10:45:42;;;;;;;0.00;0.00;;;15.70;96.00;;;;;;5039772;28;20277;-81
2023/04/30 10:48:08;;;;;;;0.00;0.00;;;16.00;93.70;;;;;;5043266;28;20286;-80
2023/04/30 10:50:41;;;;;;;0.00;0.00;;;16.90;96.80;;;;;;5046822;28;20445;-82
2023/04/30 10:53:06;;;;;;;0.00;0.00;;;17.60;96.30;;;;;;5030019;28;20567;-81
2023/04/30 10:55:32;;;;;;;0.00;0.00;;;17.30;95.50;;;;;;5039740;28;20492;-81
2023/04/30 10:57:58;;;;;;;0.00;0.00;;;17.50;91.50;;;;;;5046627;28;20182;-82
2023/04/30 11:00:26;;;;;;;0.00;0.00;;;16.40;92.70;;;;;;5046190;28;20739;-80
2023/04/30 11:02:56;;;;;;;0.00;0.00;;;16.70;93.00;;;;;;5039977;28;20282;-80
2023/04/30 11:05:36;;;;;;;0.00;0.00;;;17.40;93.90;;;;;;5030663;28;20545;-81
2023/04/30 11:08:02;;;;;;;0.00;0.00;;;18.00;93.40;;;;;;5032348;28;20438;-81
2023/04/30 11:10:32;;;;;;;0.00;0.00;;;17.40;94.80;;;;;;5041760;28;20441;-82
2023/04/30 11:13:02;;;;;;;0.00;0.00;;;;;;;;;;5038340;28;20183;-82
2023/04/30 11:15:34;;;;;;;0.00;0.00;;;18.60;82.10;;;;;;5040551;28;20440;-82
2023/04/30 11:18:00;;;;;;;0.00;0.00;;;18.20;81.60;;;;;;5046817;28;20457;-82
2023/04/30 11:20:27;;;;;;;0.00;0.00;;;17.90;90.70;;;;;;5030409;28;20485;-81
2023/04/30 11:23:15;;;;;;;0.00;0.00;;;17.40;94.10;;;;;;5028919;28;20222;-82
2023/04/30 11:25:42;;;;;;;0.00;0.00;;;16.10;87.60;;;;;;5042190;28;20441;-81
2023/04/30 11:28:23;;;;;;;0.00;0.00;;;16.20;91.30;;;;;;5043555;28;20482;-82
2023/04/30 11:30:54;;;;;;;0.00;0.00;;;16.40;90.70;;;;;;5048371;28;21035;-81
2023/04/30 11:33:21;;;;;;;0.00;0.00;;;16.30;91.20;;;;;;5046471;28;20440;-82
2023/04/30 11:35:50;;;;;;;0.00;0.00;;;17.40;91.40;;;;;;5037785;28;20437;-82
2023/04/30 11:38:17;;;;;;;0.00;0.00;;;18.00;83.50;;;;;;5041479;28;20472;-81
2023/04/30 11:40:45;;;;;;;0.00;0.00;;;18.20;90.50;;;;;;5058645;28;20537;-81
2023/04/30 11:43:32;;;;;;;0.00;0.00;;;16.90;87.20;;;;;;5038197;28;20474;-81
2023/04/30 11:46:09;;;;;;;0.00;0.00;;;17.20;86.50;;;;;;5048447;28;20446;-81
2023/04/30 11:48:41;;;;;;;0.00;0.00;;;18.20;86.40;;;;;;5051863;28;20807;-82
2023/04/30 11:51:20;;;;;;;0.00;0.00;;;18.60;88.70;;;;;;5032837;28;20992;-82
2023/04/30 11:53:47;;;;;;;0.00;0.00;;;19.40;84.20;;;;;;5041047;28;20529;-82
2023/04/30 11:56:16;;;;;;;0.00;0.00;;;18.60;90.40;;;;;;5043315;28;20468;-81
2023/04/30 11:58:42;;;;;;;0.00;0.00;;;19.80;92.30;;;;;;5052520;28;20825;-82
2023/04/30 12:01:09;;;;;;;0.00;0.00;;;;;;;;;;5050563;28;20452;-81
2023/04/30 12:03:46;;;;;;;0.00;0.00;;;;;;;;;;5054859;28;20197;-81
2023/04/30 12:06:13;;;;;;;0.00;0.00;;;;;;;;;;5056153;28;20440;-82
2023/04/30 12:08:40;;;;;;;0.00;0.00;;;;;;;;;;5049006;28;20437;-82
2023/04/30 12:11:18;;;;;;;0.00;0.00;;;;;;;;;;5045660;28;20452;-82
2023/04/30 12:13:49;;;;;;;0.00;0.00;;;;;;;;;;5040951;28;20437;-81
2023/04/30 12:16:15;;;;;;;0.00;0.00;;;19.20;99.90;;;;;;5039499;28;21372;-81
2023/04/30 12:18:40;;;;;;;0.00;0.00;;;19.40;99.90;;;;;;5048122;28;20444;-82
2023/04/30 12:21:06;;;;;;;0.00;0.00;;;;;;;;;;5043889;28;20248;-82
2023/04/30 12:23:32;;;;;;;0.00;0.00;;;;;;;;;;5030770;28;20190;-81
2023/04/30 12:25:59;;;;;;;0.00;0.00;;;;;;;;;;5040584;28;20801;-82
2023/04/30 12:28:25;;;;;;;0.00;0.00;;;;;;;;;;5040933;28;20442;-82
2023/04/30 12:30:52;;;;;;;0.00;0.00;;;18.70;99.90;;;;;;5044120;28;20610;-81
2023/04/30 12:33:18;;;;;;;0.00;0.00;;;18.80;99.90;;;;;;5050608;28;20191;-81
2023/04/30 12:35:44;;;;;;;0.00;0.00;;;;;;;;;;5045000;28;20484;-81
2023/04/30 12:38:14;;;;;;;0.00;0.00;;;18.50;99.90;;;;;;5050196;28;20186;-82
2023/04/30 12:40:48;;;;;;;0.00;0.00;;;19.20;99.90;;;;;;5035246;28;20231;-82
2023/04/30 12:43:15;;;;;;;0.00;0.00;;;;;;;;;;5030142;28;20481;-82
2023/04/30 12:45:47;;;;;;;0.00;0.00;;;;;;;;;;5032465;28;20449;-82
2023/04/30 12:48:15;;;;;;;0.00;0.00;;;18.80;99.90;;;;;;5050234;28;20492;-82
2023/04/30 12:50:41;;;;;;;0.00;0.00;;;18.80;99.90;;;;;;5031542;28;20442;-82
2023/04/30 12:53:07;;;;;;;0.00;0.00;;;19.20;99.90;;;;;;5035170;28;20456;-82
2023/04/30 12:55:36;;;;;;;0.00;0.00;;;19.90;99.90;;;;;;5040024;28;20809;-81
2023/04/30 12:58:15;;;;;;;0.00;0.00;;;19.20;99.90;;;;;;5058173;28;20187;-82
2023/04/30 13:00:45;;;;;;;0.00;0.00;;;;;;;;;;5046799;28;20580;-82